Main page
METAR-TAF:

METAR-TAF

Airports :

Destin–Fort Walton Beach Airport

Destin, Florida, United States

latitude: 30-23-36N, longitude: 086-28-03W, elevation: 20 ft

Current weather observation

The report was made 27 minutes ago, at 20:53 UTC
Wind 13 mph from the Southeast
Temperature 72°F
Humidity 78%
Pressure 30.12 in. Hg
Visibility: 10 miles
Clear sky

METAR: KDTS 272053Z 14011KT 10SM CLR 22/18 A3012 RMK AO2 SLP199 T02170183 56014

Time: 15:20 (21:20 UTC)


TAF: missing

Weather observations and forecasts of more than 4000 airports (METAR and TAF reports).

The available stations are represented by yellow and red dots on the map.

Hover mouse over dot to see the name of the station.

Then click to see weather observations and forecasts.

To change the map : click on the green buttons with a black cross to zoom in, on the green button with a dash to zoom out, or on the green arrows for adjacent maps.


METAR-TAF: